sensor_id;sensor_type;location;lat;lon;timestamp;temperature;humidity
15409;DHT22;7803;48.130;13.788;2022-07-06T00:02:54;23.90;98.10
15409;DHT22;7803;48.130;13.788;2022-07-06T00:05:58;23.90;98.40
15409;DHT22;7803;48.130;13.788;2022-07-06T00:09:00;23.90;98.50
15409;DHT22;7803;48.130;13.788;2022-07-06T00:12:02;23.90;98.80
15409;DHT22;7803;48.130;13.788;2022-07-06T00:15:05;23.90;99.50
15409;DHT22;7803;48.130;13.788;2022-07-06T00:18:07;23.90;99.60
15409;DHT22;7803;48.130;13.788;2022-07-06T00:21:11;23.90;99.90
15409;DHT22;7803;48.130;13.788;2022-07-06T00:24:13;23.90;98.40
15409;DHT22;7803;48.130;13.788;2022-07-06T00:27:15;23.90;98.40
15409;DHT22;7803;48.130;13.788;2022-07-06T00:30:17;23.90;98.00
15409;DHT22;7803;48.130;13.788;2022-07-06T00:33:19;23.90;98.30
15409;DHT22;7803;48.130;13.788;2022-07-06T00:36:23;23.90;97.70
15409;DHT22;7803;48.130;13.788;2022-07-06T00:39:25;23.90;97.60
15409;DHT22;7803;48.130;13.788;2022-07-06T00:42:29;24.00;98.00
15409;DHT22;7803;48.130;13.788;2022-07-06T00:45:31;23.90;97.80
15409;DHT22;7803;48.130;13.788;2022-07-06T00:48:33;23.90;97.70
15409;DHT22;7803;48.130;13.788;2022-07-06T00:51:37;23.90;97.60
15409;DHT22;7803;48.130;13.788;2022-07-06T00:54:41;23.90;97.40
15409;DHT22;7803;48.130;13.788;2022-07-06T00:57:44;23.90;98.00
15409;DHT22;7803;48.130;13.788;2022-07-06T01:00:47;23.90;98.20
15409;DHT22;7803;48.130;13.788;2022-07-06T01:03:49;23.90;98.80
15409;DHT22;7803;48.130;13.788;2022-07-06T01:06:52;23.80;99.60
15409;DHT22;7803;48.130;13.788;2022-07-06T01:09:55;23.90;99.90
15409;DHT22;7803;48.130;13.788;2022-07-06T01:12:57;23.90;99.90
15409;DHT22;7803;48.130;13.788;2022-07-06T01:15:59;23.90;99.90
15409;DHT22;7803;48.130;13.788;2022-07-06T01:19:01;23.90;99.90
15409;DHT22;7803;48.130;13.788;2022-07-06T01:22:05;23.90;99.90
15409;DHT22;7803;48.130;13.788;2022-07-06T01:25:07;23.90;99.90
15409;DHT22;7803;48.130;13.788;2022-07-06T01:28:10;23.90;99.90
15409;DHT22;7803;48.130;13.788;2022-07-06T01:31:16;23.90;99.40
15409;DHT22;7803;48.130;13.788;2022-07-06T01:34:19;23.90;98.20
15409;DHT22;7803;48.130;13.788;2022-07-06T01:37:22;23.90;98.00
15409;DHT22;7803;48.130;13.788;2022-07-06T01:40:25;23.80;97.80
15409;DHT22;7803;48.130;13.788;2022-07-06T01:43:27;23.80;98.10
15409;DHT22;7803;48.130;13.788;2022-07-06T01:46:29;23.90;98.70
15409;DHT22;7803;48.130;13.788;2022-07-06T01:49:31;23.90;99.10
15409;DHT22;7803;48.130;13.788;2022-07-06T01:52:34;23.90;99.00
15409;DHT22;7803;48.130;13.788;2022-07-06T01:55:36;23.80;99.70
15409;DHT22;7803;48.130;13.788;2022-07-06T01:58:38;23.90;99.70
15409;DHT22;7803;48.130;13.788;2022-07-06T02:01:41;23.90;99.90
15409;DHT22;7803;48.130;13.788;2022-07-06T02:04:43;23.90;99.80
15409;DHT22;7803;48.130;13.788;2022-07-06T02:07:46;23.90;99.90
15409;DHT22;7803;48.130;13.788;2022-07-06T02:10:48;23.90;99.90
15409;DHT22;7803;48.130;13.788;2022-07-06T02:13:50;23.90;99.90
15409;DHT22;7803;48.130;13.788;2022-07-06T02:16:52;23.80;99.80
15409;DHT22;7803;48.130;13.788;2022-07-06T02:19:54;23.90;99.80
15409;DHT22;7803;48.130;13.788;2022-07-06T02:22:57;23.80;99.90
15409;DHT22;7803;48.130;13.788;2022-07-06T02:25:59;23.90;99.90
15409;DHT22;7803;48.130;13.788;2022-07-06T02:29:01;23.80;99.80
15409;DHT22;7803;48.130;13.788;2022-07-06T02:32:04;23.80;99.60
15409;DHT22;7803;48.130;13.788;2022-07-06T02:35:06;23.90;99.90
15409;DHT22;7803;48.130;13.788;2022-07-06T02:38:10;23.80;99.90
15409;DHT22;7803;48.130;13.788;2022-07-06T02:41:12;23.80;99.90
15409;DHT22;7803;48.130;13.788;2022-07-06T02:44:14;23.90;99.90
15409;DHT22;7803;48.130;13.788;2022-07-06T02:47:16;23.80;99.90
15409;DHT22;7803;48.130;13.788;2022-07-06T02:50:18;23.80;99.90
15409;DHT22;7803;48.130;13.788;2022-07-06T02:53:21;23.80;99.90
15409;DHT22;7803;48.130;13.788;2022-07-06T02:56:23;23.80;99.90
15409;DHT22;7803;48.130;13.788;2022-07-06T02:59:25;23.80;99.90
15409;DHT22;7803;48.130;13.788;2022-07-06T03:02:27;23.80;99.80
15409;DHT22;7803;48.130;13.788;2022-07-06T03:05:29;23.80;99.40
15409;DHT22;7803;48.130;13.788;2022-07-06T03:08:32;23.80;99.40
15409;DHT22;7803;48.130;13.788;2022-07-06T03:11:35;23.80;99.80
15409;DHT22;7803;48.130;13.788;2022-07-06T03:14:37;23.90;99.90
15409;DHT22;7803;48.130;13.788;2022-07-06T03:17:39;23.80;99.80
15409;DHT22;7803;48.130;13.788;2022-07-06T03:20:41;23.80;99.90
15409;DHT22;7803;48.130;13.788;2022-07-06T03:23:44;23.80;99.90
15409;DHT22;7803;48.130;13.788;2022-07-06T03:26:46;23.80;99.90
15409;DHT22;7803;48.130;13.788;2022-07-06T03:29:48;23.80;99.90
15409;DHT22;7803;48.130;13.788;2022-07-06T03:32:50;23.80;99.90
15409;DHT22;7803;48.130;13.788;2022-07-06T03:35:52;23.80;99.90
15409;DHT22;7803;48.130;13.788;2022-07-06T03:38:56;23.80;99.90
15409;DHT22;7803;48.130;13.788;2022-07-06T03:41:58;23.80;99.70
15409;DHT22;7803;48.130;13.788;2022-07-06T03:45:00;23.80;99.90
15409;DHT22;7803;48.130;13.788;2022-07-06T03:48:02;23.80;99.80
15409;DHT22;7803;48.130;13.788;2022-07-06T03:51:04;23.80;99.80
15409;DHT22;7803;48.130;13.788;2022-07-06T03:54:08;23.80;99.90
15409;DHT22;7803;48.130;13.788;2022-07-06T03:57:10;23.80;99.90
15409;DHT22;7803;48.130;13.788;2022-07-06T04:00:14;23.80;99.90
15409;DHT22;7803;48.130;13.788;2022-07-06T04:03:16;23.80;99.90
15409;DHT22;7803;48.130;13.788;2022-07-06T04:06:18;23.80;99.80
15409;DHT22;7803;48.130;13.788;2022-07-06T04:09:22;23.80;99.90
15409;DHT22;7803;48.130;13.788;2022-07-06T04:12:24;23.70;99.90
15409;DHT22;7803;48.130;13.788;2022-07-06T04:15:26;23.80;99.90
15409;DHT22;7803;48.130;13.788;2022-07-06T04:18:28;23.80;99.90
15409;DHT22;7803;48.130;13.788;2022-07-06T04:21:30;23.80;99.90
15409;DHT22;7803;48.130;13.788;2022-07-06T04:24:33;23.80;99.40
15409;DHT22;7803;48.130;13.788;2022-07-06T04:27:36;23.80;99.20
15409;DHT22;7803;48.130;13.788;2022-07-06T04:30:38;23.70;98.90
15409;DHT22;7803;48.130;13.788;2022-07-06T04:33:40;23.80;98.60
15409;DHT22;7803;48.130;13.788;2022-07-06T04:36:42;23.70;98.60
15409;DHT22;7803;48.130;13.788;2022-07-06T04:39:45;23.80;98.70
15409;DHT22;7803;48.130;13.788;2022-07-06T04:42:47;23.80;98.30
15409;DHT22;7803;48.130;13.788;2022-07-06T04:45:49;23.80;98.50
15409;DHT22;7803;48.130;13.788;2022-07-06T04:48:51;23.70;98.30
15409;DHT22;7803;48.130;13.788;2022-07-06T04:51:53;23.70;98.30
15409;DHT22;7803;48.130;13.788;2022-07-06T04:54:57;23.80;98.50
15409;DHT22;7803;48.130;13.788;2022-07-06T04:57:59;23.80;98.80
15409;DHT22;7803;48.130;13.788;2022-07-06T05:01:01;23.80;98.80
15409;DHT22;7803;48.130;13.788;2022-07-06T05:04:03;23.80;99.10
15409;DHT22;7803;48.130;13.788;2022-07-06T05:07:05;23.80;99.30
15409;DHT22;7803;48.130;13.788;2022-07-06T05:10:10;23.80;99.20
15409;DHT22;7803;48.130;13.788;2022-07-06T05:13:12;23.90;99.20
15409;DHT22;7803;48.130;13.788;2022-07-06T05:16:14;23.90;98.90
15409;DHT22;7803;48.130;13.788;2022-07-06T05:19:16;23.90;98.30
15409;DHT22;7803;48.130;13.788;2022-07-06T05:22:18;23.90;98.00
15409;DHT22;7803;48.130;13.788;2022-07-06T05:25:22;23.90;98.00
15409;DHT22;7803;48.130;13.788;2022-07-06T05:28:24;23.90;98.60
15409;DHT22;7803;48.130;13.788;2022-07-06T05:31:26;23.90;98.50
15409;DHT22;7803;48.130;13.788;2022-07-06T05:34:28;23.90;98.60
15409;DHT22;7803;48.130;13.788;2022-07-06T05:37:30;23.90;98.50
15409;DHT22;7803;48.130;13.788;2022-07-06T05:40:33;23.90;98.60
15409;DHT22;7803;48.130;13.788;2022-07-06T05:43:36;23.90;98.60
15409;DHT22;7803;48.130;13.788;2022-07-06T05:46:38;23.90;98.70
15409;DHT22;7803;48.130;13.788;2022-07-06T05:49:40;23.90;98.90
15409;DHT22;7803;48.130;13.788;2022-07-06T05:53:02;23.90;99.20
15409;DHT22;7803;48.130;13.788;2022-07-06T05:56:06;23.90;99.40
15409;DHT22;7803;48.130;13.788;2022-07-06T05:59:08;23.90;98.90
15409;DHT22;7803;48.130;13.788;2022-07-06T06:02:10;23.90;98.40
15409;DHT22;7803;48.130;13.788;2022-07-06T06:05:13;23.90;98.10
15409;DHT22;7803;48.130;13.788;2022-07-06T06:08:15;23.90;98.10
15409;DHT22;7803;48.130;13.788;2022-07-06T06:11:19;23.90;98.20
15409;DHT22;7803;48.130;13.788;2022-07-06T06:14:21;23.90;98.50
15409;DHT22;7803;48.130;13.788;2022-07-06T06:17:23;23.90;98.20
15409;DHT22;7803;48.130;13.788;2022-07-06T06:20:25;23.90;98.20
15409;DHT22;7803;48.130;13.788;2022-07-06T06:23:28;23.90;96.80
15409;DHT22;7803;48.130;13.788;2022-07-06T06:26:31;23.90;96.70
15409;DHT22;7803;48.130;13.788;2022-07-06T06:29:33;23.90;95.60
15409;DHT22;7803;48.130;13.788;2022-07-06T06:32:35;23.90;95.60
15409;DHT22;7803;48.130;13.788;2022-07-06T06:35:38;23.90;95.70
15409;DHT22;7803;48.130;13.788;2022-07-06T06:38:40;23.90;95.70
15409;DHT22;7803;48.130;13.788;2022-07-06T06:41:43;23.90;95.60
15409;DHT22;7803;48.130;13.788;2022-07-06T06:44:45;23.90;95.30
15409;DHT22;7803;48.130;13.788;2022-07-06T06:47:47;23.90;94.40
15409;DHT22;7803;48.130;13.788;2022-07-06T06:50:49;23.90;93.40
15409;DHT22;7803;48.130;13.788;2022-07-06T06:53:51;23.90;93.20
15409;DHT22;7803;48.130;13.788;2022-07-06T06:56:55;23.90;93.60
15409;DHT22;7803;48.130;13.788;2022-07-06T06:59:57;23.90;93.70
15409;DHT22;7803;48.130;13.788;2022-07-06T07:02:59;23.90;93.90
15409;DHT22;7803;48.130;13.788;2022-07-06T07:06:01;23.90;93.90
15409;DHT22;7803;48.130;13.788;2022-07-06T07:09:03;23.90;94.10
15409;DHT22;7803;48.130;13.788;2022-07-06T07:12:07;23.90;93.80
15409;DHT22;7803;48.130;13.788;2022-07-06T07:15:10;23.90;93.90
15409;DHT22;7803;48.130;13.788;2022-07-06T07:18:13;23.90;94.20
15409;DHT22;7803;48.130;13.788;2022-07-06T07:21:15;23.90;94.00
15409;DHT22;7803;48.130;13.788;2022-07-06T07:24:17;23.90;94.00
15409;DHT22;7803;48.130;13.788;2022-07-06T07:27:20;23.90;93.80
15409;DHT22;7803;48.130;13.788;2022-07-06T07:30:22;23.90;94.00
15409;DHT22;7803;48.130;13.788;2022-07-06T07:33:24;23.90;93.90
15409;DHT22;7803;48.130;13.788;2022-07-06T07:36:26;23.90;93.70
15409;DHT22;7803;48.130;13.788;2022-07-06T07:39:28;23.90;93.80
15409;DHT22;7803;48.130;13.788;2022-07-06T07:42:32;23.90;93.40
15409;DHT22;7803;48.130;13.788;2022-07-06T07:45:34;23.90;93.40
15409;DHT22;7803;48.130;13.788;2022-07-06T07:48:36;23.90;93.70
15409;DHT22;7803;48.130;13.788;2022-07-06T07:51:38;23.90;94.00
15409;DHT22;7803;48.130;13.788;2022-07-06T07:54:42;23.90;93.70
15409;DHT22;7803;48.130;13.788;2022-07-06T07:57:45;23.90;93.70
15409;DHT22;7803;48.130;13.788;2022-07-06T08:00:47;23.80;93.40
15409;DHT22;7803;48.130;13.788;2022-07-06T08:03:49;23.90;93.70
15409;DHT22;7803;48.130;13.788;2022-07-06T08:06:51;23.80;93.50
15409;DHT22;7803;48.130;13.788;2022-07-06T08:09:53;23.90;93.60
15409;DHT22;7803;48.130;13.788;2022-07-06T08:12:57;23.90;94.00
15409;DHT22;7803;48.130;13.788;2022-07-06T08:15:59;23.90;93.40
15409;DHT22;7803;48.130;13.788;2022-07-06T08:19:01;23.90;93.60
15409;DHT22;7803;48.130;13.788;2022-07-06T08:22:03;23.90;93.80
15409;DHT22;7803;48.130;13.788;2022-07-06T08:25:08;23.90;94.20
15409;DHT22;7803;48.130;13.788;2022-07-06T08:28:11;23.90;94.60
15409;DHT22;7803;48.130;13.788;2022-07-06T08:31:13;23.90;94.70
15409;DHT22;7803;48.130;13.788;2022-07-06T08:34:15;23.90;94.80
15409;DHT22;7803;48.130;13.788;2022-07-06T08:37:17;23.90;94.60
15409;DHT22;7803;48.130;13.788;2022-07-06T08:40:20;23.80;94.50
15409;DHT22;7803;48.130;13.788;2022-07-06T08:43:23;23.90;94.40
15409;DHT22;7803;48.130;13.788;2022-07-06T08:46:28;23.90;94.60
15409;DHT22;7803;48.130;13.788;2022-07-06T08:49:31;23.90;94.80
15409;DHT22;7803;48.130;13.788;2022-07-06T08:52:34;23.90;94.50
15409;DHT22;7803;48.130;13.788;2022-07-06T08:55:36;23.90;94.20
15409;DHT22;7803;48.130;13.788;2022-07-06T08:58:41;23.90;94.80
15409;DHT22;7803;48.130;13.788;2022-07-06T09:01:44;23.90;94.50
15409;DHT22;7803;48.130;13.788;2022-07-06T09:04:47;23.90;94.80
15409;DHT22;7803;48.130;13.788;2022-07-06T09:07:51;23.90;94.70
15409;DHT22;7803;48.130;13.788;2022-07-06T09:10:54;23.90;94.30
15409;DHT22;7803;48.130;13.788;2022-07-06T09:13:57;23.90;94.80
15409;DHT22;7803;48.130;13.788;2022-07-06T09:17:03;23.90;95.10
15409;DHT22;7803;48.130;13.788;2022-07-06T09:20:08;23.90;94.60
15409;DHT22;7803;48.130;13.788;2022-07-06T09:23:10;23.90;94.50
15409;DHT22;7803;48.130;13.788;2022-07-06T09:26:17;23.90;94.90
15409;DHT22;7803;48.130;13.788;2022-07-06T09:29:26;23.90;95.40
15409;DHT22;7803;48.130;13.788;2022-07-06T09:32:29;23.90;95.80
15409;DHT22;7803;48.130;13.788;2022-07-06T09:35:35;23.90;96.20
15409;DHT22;7803;48.130;13.788;2022-07-06T09:38:37;23.90;95.80
15409;DHT22;7803;48.130;13.788;2022-07-06T09:41:39;23.90;96.20
15409;DHT22;7803;48.130;13.788;2022-07-06T09:44:43;23.90;96.40
15409;DHT22;7803;48.130;13.788;2022-07-06T09:47:46;23.90;96.40
15409;DHT22;7803;48.130;13.788;2022-07-06T09:50:50;23.90;95.80
15409;DHT22;7803;48.130;13.788;2022-07-06T09:53:53;23.90;95.80
15409;DHT22;7803;48.130;13.788;2022-07-06T09:56:59;23.90;96.00
15409;DHT22;7803;48.130;13.788;2022-07-06T10:00:06;23.90;95.60
15409;DHT22;7803;48.130;13.788;2022-07-06T10:03:08;23.90;95.50
15409;DHT22;7803;48.130;13.788;2022-07-06T10:06:10;23.90;94.50
15409;DHT22;7803;48.130;13.788;2022-07-06T10:09:14;23.90;93.60
15409;DHT22;7803;48.130;13.788;2022-07-06T10:12:17;23.90;94.20
15409;DHT22;7803;48.130;13.788;2022-07-06T10:15:23;23.90;94.20
15409;DHT22;7803;48.130;13.788;2022-07-06T10:18:26;23.90;94.10
15409;DHT22;7803;48.130;13.788;2022-07-06T10:21:28;23.90;93.90
15409;DHT22;7803;48.130;13.788;2022-07-06T10:24:32;23.90;93.60
15409;DHT22;7803;48.130;13.788;2022-07-06T10:27:40;23.90;94.10
15409;DHT22;7803;48.130;13.788;2022-07-06T10:30:44;23.90;94.00
15409;DHT22;7803;48.130;13.788;2022-07-06T10:33:47;23.90;93.40
15409;DHT22;7803;48.130;13.788;2022-07-06T10:36:50;23.90;93.20
15409;DHT22;7803;48.130;13.788;2022-07-06T10:39:53;23.90;93.60
15409;DHT22;7803;48.130;13.788;2022-07-06T10:43:14;23.90;93.90
15409;DHT22;7803;48.130;13.788;2022-07-06T10:46:18;23.90;93.90
15409;DHT22;7803;48.130;13.788;2022-07-06T10:49:21;23.90;93.80
15409;DHT22;7803;48.130;13.788;2022-07-06T10:52:24;23.90;93.80
15409;DHT22;7803;48.130;13.788;2022-07-06T10:55:47;23.90;93.90
15409;DHT22;7803;48.130;13.788;2022-07-06T10:58:51;23.90;92.20
15409;DHT22;7803;48.130;13.788;2022-07-06T11:05:42;23.90;91.90
15409;DHT22;7803;48.130;13.788;2022-07-06T11:08:54;23.90;92.60
15409;DHT22;7803;48.130;13.788;2022-07-06T11:11:57;23.90;92.40
15409;DHT22;7803;48.130;13.788;2022-07-06T11:14:59;24.00;92.70
15409;DHT22;7803;48.130;13.788;2022-07-06T11:18:10;23.90;93.00
15409;DHT22;7803;48.130;13.788;2022-07-06T11:21:22;23.90;93.20
15409;DHT22;7803;48.130;13.788;2022-07-06T11:24:25;23.90;93.10
15409;DHT22;7803;48.130;13.788;2022-07-06T11:27:29;23.90;93.20
15409;DHT22;7803;48.130;13.788;2022-07-06T11:30:31;23.90;92.70
15409;DHT22;7803;48.130;13.788;2022-07-06T11:33:34;23.90;92.70
15409;DHT22;7803;48.130;13.788;2022-07-06T11:36:38;23.90;92.80
15409;DHT22;7803;48.130;13.788;2022-07-06T11:39:42;23.90;92.00
15409;DHT22;7803;48.130;13.788;2022-07-06T11:42:53;24.00;91.60
15409;DHT22;7803;48.130;13.788;2022-07-06T11:45:55;24.00;91.30
15409;DHT22;7803;48.130;13.788;2022-07-06T11:48:58;24.00;90.90
15409;DHT22;7803;48.130;13.788;2022-07-06T11:52:05;24.00;91.40
15409;DHT22;7803;48.130;13.788;2022-07-06T11:55:07;24.00;91.80
15409;DHT22;7803;48.130;13.788;2022-07-06T11:58:10;24.00;91.00
15409;DHT22;7803;48.130;13.788;2022-07-06T12:01:14;24.00;91.20
15409;DHT22;7803;48.130;13.788;2022-07-06T12:04:16;24.00;91.20
15409;DHT22;7803;48.130;13.788;2022-07-06T12:07:19;24.00;90.00
15409;DHT22;7803;48.130;13.788;2022-07-06T12:10:31;24.00;90.30
15409;DHT22;7803;48.130;13.788;2022-07-06T12:13:36;24.00;90.40
15409;DHT22;7803;48.130;13.788;2022-07-06T12:16:41;24.00;90.00
15409;DHT22;7803;48.130;13.788;2022-07-06T12:19:43;24.00;90.30
15409;DHT22;7803;48.130;13.788;2022-07-06T12:22:47;24.00;89.30
15409;DHT22;7803;48.130;13.788;2022-07-06T12:25:54;24.00;88.20
15409;DHT22;7803;48.130;13.788;2022-07-06T12:28:59;24.00;88.60
15409;DHT22;7803;48.130;13.788;2022-07-06T12:32:02;24.00;89.00
15409;DHT22;7803;48.130;13.788;2022-07-06T12:35:08;24.00;88.30
15409;DHT22;7803;48.130;13.788;2022-07-06T12:38:11;24.00;89.00
15409;DHT22;7803;48.130;13.788;2022-07-06T12:41:31;24.00;86.90
15409;DHT22;7803;48.130;13.788;2022-07-06T12:44:41;24.00;87.30
15409;DHT22;7803;48.130;13.788;2022-07-06T12:47:57;23.90;86.20
15409;DHT22;7803;48.130;13.788;2022-07-06T12:51:00;24.00;86.80
15409;DHT22;7803;48.130;13.788;2022-07-06T12:54:16;23.90;86.40
15409;DHT22;7803;48.130;13.788;2022-07-06T12:57:20;24.00;85.70
15409;DHT22;7803;48.130;13.788;2022-07-06T13:00:24;23.90;86.20
15409;DHT22;7803;48.130;13.788;2022-07-06T13:03:26;24.00;86.40
15409;DHT22;7803;48.130;13.788;2022-07-06T13:06:33;23.90;86.10
15409;DHT22;7803;48.130;13.788;2022-07-06T13:09:36;24.00;85.90
15409;DHT22;7803;48.130;13.788;2022-07-06T13:12:39;24.00;85.90
15409;DHT22;7803;48.130;13.788;2022-07-06T13:15:42;24.00;85.20
15409;DHT22;7803;48.130;13.788;2022-07-06T13:18:44;24.00;84.60
15409;DHT22;7803;48.130;13.788;2022-07-06T13:21:46;24.00;84.40
15409;DHT22;7803;48.130;13.788;2022-07-06T13:24:50;24.00;84.10
15409;DHT22;7803;48.130;13.788;2022-07-06T13:27:52;24.00;84.00
15409;DHT22;7803;48.130;13.788;2022-07-06T13:30:54;24.00;83.90
15409;DHT22;7803;48.130;13.788;2022-07-06T13:33:56;24.00;82.50
15409;DHT22;7803;48.130;13.788;2022-07-06T13:36:58;24.00;82.80
15409;DHT22;7803;48.130;13.788;2022-07-06T13:40:02;24.00;82.50
15409;DHT22;7803;48.130;13.788;2022-07-06T13:43:04;24.00;82.30
15409;DHT22;7803;48.130;13.788;2022-07-06T13:46:07;24.00;82.00
15409;DHT22;7803;48.130;13.788;2022-07-06T13:49:11;24.00;82.90
15409;DHT22;7803;48.130;13.788;2022-07-06T13:52:13;24.00;82.70
15409;DHT22;7803;48.130;13.788;2022-07-06T13:55:17;24.00;81.80
15409;DHT22;7803;48.130;13.788;2022-07-06T13:58:19;24.00;82.00
15409;DHT22;7803;48.130;13.788;2022-07-06T14:01:22;24.00;82.80
15409;DHT22;7803;48.130;13.788;2022-07-06T14:04:24;24.00;83.20
15409;DHT22;7803;48.130;13.788;2022-07-06T14:07:26;24.00;83.50
15409;DHT22;7803;48.130;13.788;2022-07-06T14:10:30;24.00;83.80
15409;DHT22;7803;48.130;13.788;2022-07-06T14:13:32;24.00;84.80
15409;DHT22;7803;48.130;13.788;2022-07-06T14:16:34;24.00;84.00
15409;DHT22;7803;48.130;13.788;2022-07-06T14:19:36;24.00;84.40
15409;DHT22;7803;48.130;13.788;2022-07-06T14:22:39;24.10;84.50
15409;DHT22;7803;48.130;13.788;2022-07-06T14:25:42;24.00;84.40
15409;DHT22;7803;48.130;13.788;2022-07-06T14:28:45;24.00;84.40
15409;DHT22;7803;48.130;13.788;2022-07-06T14:31:47;24.00;84.40
15409;DHT22;7803;48.130;13.788;2022-07-06T14:34:49;24.00;84.00
15409;DHT22;7803;48.130;13.788;2022-07-06T14:37:51;24.00;83.10
15409;DHT22;7803;48.130;13.788;2022-07-06T14:40:55;24.10;83.40
15409;DHT22;7803;48.130;13.788;2022-07-06T14:43:57;24.00;83.30
15409;DHT22;7803;48.130;13.788;2022-07-06T14:46:59;24.10;82.60
15409;DHT22;7803;48.130;13.788;2022-07-06T14:50:01;24.10;82.40
15409;DHT22;7803;48.130;13.788;2022-07-06T14:53:04;24.00;82.30
15409;DHT22;7803;48.130;13.788;2022-07-06T14:56:07;24.00;81.30
15409;DHT22;7803;48.130;13.788;2022-07-06T14:59:10;24.10;81.30
15409;DHT22;7803;48.130;13.788;2022-07-06T15:02:11;24.10;81.20
15409;DHT22;7803;48.130;13.788;2022-07-06T15:05:14;24.10;81.00
15409;DHT22;7803;48.130;13.788;2022-07-06T15:08:16;24.10;81.20
15409;DHT22;7803;48.130;13.788;2022-07-06T15:11:19;24.10;81.30
15409;DHT22;7803;48.130;13.788;2022-07-06T15:14:22;24.10;81.10
15409;DHT22;7803;48.130;13.788;2022-07-06T15:17:24;24.00;80.90
15409;DHT22;7803;48.130;13.788;2022-07-06T15:20:28;24.10;80.80
15409;DHT22;7803;48.130;13.788;2022-07-06T15:23:30;24.10;81.40
15409;DHT22;7803;48.130;13.788;2022-07-06T15:26:33;24.10;81.70
15409;DHT22;7803;48.130;13.788;2022-07-06T15:29:35;24.10;81.80
15409;DHT22;7803;48.130;13.788;2022-07-06T15:32:37;24.00;81.70
15409;DHT22;7803;48.130;13.788;2022-07-06T15:35:39;24.10;81.00
15409;DHT22;7803;48.130;13.788;2022-07-06T15:38:41;24.10;81.30
15409;DHT22;7803;48.130;13.788;2022-07-06T15:41:45;24.10;81.60
15409;DHT22;7803;48.130;13.788;2022-07-06T15:44:47;24.10;82.30
15409;DHT22;7803;48.130;13.788;2022-07-06T15:47:52;24.10;81.80
15409;DHT22;7803;48.130;13.788;2022-07-06T15:50:54;24.10;82.50
15409;DHT22;7803;48.130;13.788;2022-07-06T15:53:57;24.10;82.20
15409;DHT22;7803;48.130;13.788;2022-07-06T15:57:00;24.10;82.90
15409;DHT22;7803;48.130;13.788;2022-07-06T16:00:04;24.10;82.80
15409;DHT22;7803;48.130;13.788;2022-07-06T16:03:06;24.10;83.50
15409;DHT22;7803;48.130;13.788;2022-07-06T16:06:08;24.10;83.80
15409;DHT22;7803;48.130;13.788;2022-07-06T16:09:11;24.10;83.30
15409;DHT22;7803;48.130;13.788;2022-07-06T16:12:14;24.10;83.80
15409;DHT22;7803;48.130;13.788;2022-07-06T16:15:16;24.10;83.70
15409;DHT22;7803;48.130;13.788;2022-07-06T16:18:18;24.10;84.00
15409;DHT22;7803;48.130;13.788;2022-07-06T16:21:23;24.10;84.20
15409;DHT22;7803;48.130;13.788;2022-07-06T16:24:25;24.10;85.00
15409;DHT22;7803;48.130;13.788;2022-07-06T16:27:28;24.10;85.00
15409;DHT22;7803;48.130;13.788;2022-07-06T16:30:30;24.10;85.40
15409;DHT22;7803;48.130;13.788;2022-07-06T16:33:32;24.10;84.90
15409;DHT22;7803;48.130;13.788;2022-07-06T16:36:37;24.00;83.80
15409;DHT22;7803;48.130;13.788;2022-07-06T16:39:39;24.10;84.30
15409;DHT22;7803;48.130;13.788;2022-07-06T16:42:44;24.10;84.20
15409;DHT22;7803;48.130;13.788;2022-07-06T16:45:46;24.10;84.50
15409;DHT22;7803;48.130;13.788;2022-07-06T16:48:48;24.10;82.90
15409;DHT22;7803;48.130;13.788;2022-07-06T16:51:50;24.10;83.80
15409;DHT22;7803;48.130;13.788;2022-07-06T16:54:52;24.10;84.30
15409;DHT22;7803;48.130;13.788;2022-07-06T16:57:55;24.10;84.50
15409;DHT22;7803;48.130;13.788;2022-07-06T17:00:57;24.10;84.70
15409;DHT22;7803;48.130;13.788;2022-07-06T17:03:59;24.10;85.20
15409;DHT22;7803;48.130;13.788;2022-07-06T17:07:02;24.10;85.10
15409;DHT22;7803;48.130;13.788;2022-07-06T17:10:05;24.10;85.50
15409;DHT22;7803;48.130;13.788;2022-07-06T17:13:08;24.10;84.70
15409;DHT22;7803;48.130;13.788;2022-07-06T17:16:10;24.10;85.50
15409;DHT22;7803;48.130;13.788;2022-07-06T17:19:13;24.10;85.80
15409;DHT22;7803;48.130;13.788;2022-07-06T17:22:15;24.10;86.20
15409;DHT22;7803;48.130;13.788;2022-07-06T17:25:18;24.10;86.20
15409;DHT22;7803;48.130;13.788;2022-07-06T17:28:22;24.10;86.50
15409;DHT22;7803;48.130;13.788;2022-07-06T17:31:24;24.10;86.70
15409;DHT22;7803;48.130;13.788;2022-07-06T17:34:26;24.10;86.70
15409;DHT22;7803;48.130;13.788;2022-07-06T17:37:28;24.10;87.00
15409;DHT22;7803;48.130;13.788;2022-07-06T17:40:30;24.10;87.00
15409;DHT22;7803;48.130;13.788;2022-07-06T17:43:34;24.10;87.50
15409;DHT22;7803;48.130;13.788;2022-07-06T17:46:36;24.10;87.70
15409;DHT22;7803;48.130;13.788;2022-07-06T17:49:39;24.10;88.10
15409;DHT22;7803;48.130;13.788;2022-07-06T17:52:41;24.10;88.20
15409;DHT22;7803;48.130;13.788;2022-07-06T17:55:43;24.10;88.40
15409;DHT22;7803;48.130;13.788;2022-07-06T17:58:47;24.10;88.30
15409;DHT22;7803;48.130;13.788;2022-07-06T18:01:49;24.10;88.60
15409;DHT22;7803;48.130;13.788;2022-07-06T18:04:51;24.10;88.40
15409;DHT22;7803;48.130;13.788;2022-07-06T18:07:53;24.10;88.60
15409;DHT22;7803;48.130;13.788;2022-07-06T18:10:55;24.10;88.90
15409;DHT22;7803;48.130;13.788;2022-07-06T18:14:01;24.10;89.30
15409;DHT22;7803;48.130;13.788;2022-07-06T18:17:03;24.10;89.40
15409;DHT22;7803;48.130;13.788;2022-07-06T18:20:06;24.10;89.50
15409;DHT22;7803;48.130;13.788;2022-07-06T18:23:08;24.10;89.60
15409;DHT22;7803;48.130;13.788;2022-07-06T18:26:10;24.10;89.60
15409;DHT22;7803;48.130;13.788;2022-07-06T18:29:14;24.10;89.80
15409;DHT22;7803;48.130;13.788;2022-07-06T18:32:16;24.10;90.00
15409;DHT22;7803;48.130;13.788;2022-07-06T18:35:18;24.10;90.00
15409;DHT22;7803;48.130;13.788;2022-07-06T18:38:20;24.10;90.00
15409;DHT22;7803;48.130;13.788;2022-07-06T18:41:22;24.10;90.00
15409;DHT22;7803;48.130;13.788;2022-07-06T18:44:26;24.10;90.10
15409;DHT22;7803;48.130;13.788;2022-07-06T18:47:28;24.10;90.10
15409;DHT22;7803;48.130;13.788;2022-07-06T18:50:31;24.10;90.20
15409;DHT22;7803;48.130;13.788;2022-07-06T18:53:33;24.10;90.30
15409;DHT22;7803;48.130;13.788;2022-07-06T18:56:36;24.10;90.30
15409;DHT22;7803;48.130;13.788;2022-07-06T18:59:39;24.10;90.40
15409;DHT22;7803;48.130;13.788;2022-07-06T19:02:41;24.10;90.50
15409;DHT22;7803;48.130;13.788;2022-07-06T19:05:43;24.10;90.80
15409;DHT22;7803;48.130;13.788;2022-07-06T19:08:45;24.10;91.00
15409;DHT22;7803;48.130;13.788;2022-07-06T19:11:48;24.10;90.90
15409;DHT22;7803;48.130;13.788;2022-07-06T19:14:51;24.10;90.80
15409;DHT22;7803;48.130;13.788;2022-07-06T19:17:55;24.10;90.80
15409;DHT22;7803;48.130;13.788;2022-07-06T19:20:57;24.10;90.90